Time;durP1;ratioP1;P1;durP2;ratioP2;P2;SDS_P1;SDS_P2;PMS_P1;PMS_P2;Temp;Humidity;BMP_temperature;BMP_pressure;BME280_temperature;BME280_humidity;BME280_pressure;Samples;Min_cycle;Max_cycle;Signal;HPM_P1;HPM_P2
2024/01/24 00:01:05;;;;;;;;;20.00;17.33;;;;;-143.90;100.00;77045.72;4826330;28;102523;-69
2024/01/24 00:03:32;;;;;;;;;16.00;15.67;;;;;-143.90;100.00;77037.44;4828434;28;102438;-69
2024/01/24 00:05:59;;;;;;;;;20.25;16.50;;;;;-143.90;100.00;77041.59;4829964;28;104445;-68
2024/01/24 00:08:25;;;;;;;;;20.50;15.00;;;;;-143.90;100.00;77045.72;4827186;28;104085;-69
2024/01/24 00:10:52;;;;;;;;;17.00;15.00;;;;;-143.90;100.00;77047.78;4806053;28;104982;-70
2024/01/24 00:13:19;;;;;;;;;18.00;15.33;;;;;-143.90;100.00;77049.84;4828824;28;101996;-70
2024/01/24 00:15:45;;;;;;;;;15.50;12.00;;;;;-143.90;100.00;77041.59;4829647;28;102467;-70
2024/01/24 00:18:12;;;;;;;;;17.25;14.50;;;;;-143.90;100.00;77049.84;4831704;28;104233;-70
2024/01/24 00:20:39;;;;;;;;;23.67;17.00;;;;;-143.90;100.00;77045.72;4819872;28;102108;-70
2024/01/24 00:23:06;;;;;;;;;26.00;19.33;;;;;-143.90;100.00;77062.25;4826583;28;102097;-69
2024/01/24 00:25:32;;;;;;;;;27.00;19.33;;;;;-143.90;100.00;77070.53;4826349;28;102216;-69
2024/01/24 00:27:59;;;;;;;;;23.33;18.33;;;;;-143.90;100.00;77049.84;4809292;28;104186;-69
2024/01/24 00:30:26;;;;;;;;;19.67;16.00;;;;;-143.90;100.00;77041.59;4828204;28;102300;-69
2024/01/24 00:32:52;;;;;;;;;19.00;16.00;;;;;-143.90;100.00;77041.59;4820548;28;103039;-69
2024/01/24 00:35:19;;;;;;;;;16.00;15.00;;;;;-143.90;100.00;77033.31;4831534;28;103327;-69
2024/01/24 00:37:45;;;;;;;;;19.00;19.00;;;;;-143.90;100.00;77025.03;4825365;28;104026;-69
2024/01/24 00:40:12;;;;;;;;;19.00;16.00;;;;;-143.90;100.00;77025.03;4811867;28;104782;-70
2024/01/24 00:42:42;;;;;;;;;20.00;13.00;;;;;-143.90;100.00;77010.56;4821453;28;102221;-69
2024/01/24 00:45:13;;;;;;;;;13.00;10.25;;;;;-143.90;100.00;76998.16;4829238;28;102303;-69
2024/01/24 00:47:40;;;;;;;;;13.00;10.75;;;;;-143.90;100.00;77008.50;4825375;28;104037;-69
2024/01/24 00:50:07;;;;;;;;;16.33;13.00;;;;;-143.90;100.00;77008.50;4828533;28;102362;-70
2024/01/24 00:52:34;;;;;;;;;18.33;13.67;;;;;-143.90;100.00;76991.94;4825347;28;102040;-70
2024/01/24 00:55:01;;;;;;;;;20.25;14.25;;;;;-143.90;100.00;76991.94;4817580;28;102906;-69
2024/01/24 00:57:27;;;;;;;;;15.67;13.67;;;;;-143.90;100.00;76991.94;4830180;28;104496;-69
2024/01/24 00:59:54;;;;;;;;;19.33;15.67;;;;;-143.90;100.00;76979.53;4807538;28;103393;-70
2024/01/24 01:02:21;;;;;;;;;16.67;15.67;;;;;-143.90;100.00;76983.66;4810076;28;102521;-71
2024/01/24 01:04:47;;;;;;;;;15.67;13.00;;;;;-143.90;100.00;76983.66;4821241;28;102647;-70
2024/01/24 01:07:14;;;;;;;;;13.67;12.67;;;;;-143.90;100.00;76994.00;4825473;28;104304;-70
2024/01/24 01:09:40;;;;;;;;;18.33;15.67;;;;;-143.90;100.00;77004.34;4823511;28;102210;-70
2024/01/24 01:12:07;;;;;;;;;20.67;16.67;;;;;-143.90;100.00;77000.22;4809651;29;102472;-70
2024/01/24 01:14:34;;;;;;;;;16.75;15.50;;;;;-143.90;100.00;76991.94;4816980;28;103487;-71
2024/01/24 01:17:01;;;;;;;;;12.00;11.00;;;;;-143.90;100.00;76989.88;4825941;28;104337;-70
2024/01/24 01:19:27;;;;;;;;;12.00;9.00;;;;;-143.90;100.00;76983.66;4825138;28;102536;-70
2024/01/24 01:21:54;;;;;;;;;8.75;8.00;;;;;-143.90;100.00;76975.41;4827492;28;104232;-70
2024/01/24 01:24:20;;;;;;;;;7.75;7.00;;;;;-143.90;100.00;76975.41;4830418;28;102437;-69
2024/01/24 01:26:47;;;;;;;;;7.25;5.75;;;;;-143.90;100.00;76985.75;4815429;28;104080;-70
2024/01/24 01:29:13;;;;;;;;;9.50;8.00;;;;;-143.90;100.00;76983.66;4826451;28;107310;-69
2024/01/24 01:31:40;;;;;;;;;8.50;7.00;;;;;-143.90;100.00;76979.53;4827091;28;102427;-69
2024/01/24 01:34:07;;;;;;;;;15.00;12.00;;;;;-143.90;100.00;76987.81;4827953;28;102002;-69
2024/01/24 01:36:34;;;;;;;;;9.00;7.50;;;;;-143.90;100.00;76963.00;4823935;28;104234;-70
2024/01/24 01:39:01;;;;;;;;;6.00;6.00;;;;;-143.90;100.00;76963.00;4817477;28;102365;-69
2024/01/24 01:41:28;;;;;;;;;12.50;7.75;;;;;-143.90;100.00;76960.91;4826759;28;102726;-70
2024/01/24 01:43:54;;;;;;;;;7.00;4.00;;;;;-143.90;100.00;76956.78;4828567;28;102275;-70
2024/01/24 01:46:25;;;;;;;;;6.00;5.25;;;;;-143.90;100.00;76948.50;4825073;28;104066;-70
2024/01/24 01:48:55;;;;;;;;;6.00;5.75;;;;;-143.90;100.00;76954.72;4815550;28;102443;-70
2024/01/24 01:51:22;;;;;;;;;4.00;4.00;;;;;-143.90;100.00;76956.78;4824677;28;102450;-70
2024/01/24 01:53:49;;;;;;;;;5.50;4.25;;;;;-143.90;100.00;76942.31;4818919;28;102370;-69
2024/01/24 01:56:18;;;;;;;;;5.00;4.75;;;;;-143.90;100.00;76929.91;4829360;28;104172;-69
2024/01/24 01:58:46;;;;;;;;;4.00;4.00;;;;;-143.90;100.00;76921.63;4814458;28;102442;-69
2024/01/24 02:01:14;;;;;;;;;5.00;2.00;;;;;-143.90;100.00;76919.56;4825818;28;103011;-71
2024/01/24 02:03:41;;;;;;;;;4.25;4.00;;;;;-143.90;100.00;76913.34;4824257;28;102657;-70
2024/01/24 02:06:08;;;;;;;;;4.25;1.50;;;;;-143.90;100.00;76909.22;4805510;28;103947;-71
2024/01/24 02:08:36;;;;;;;;;4.50;2.00;;;;;-143.90;100.00;76909.22;4821119;28;103959;-69
2024/01/24 02:11:04;;;;;;;;;3.50;3.50;;;;;-143.90;100.00;76892.66;4820219;28;102555;-69
2024/01/24 02:13:31;;;;;;;;;4.00;2.00;;;;;-143.90;100.00;76903.00;4810328;29;102261;-70
2024/01/24 02:15:59;;;;;;;;;2.00;2.00;;;;;-143.90;100.00;76896.81;4824831;28;104023;-69
2024/01/24 02:18:25;;;;;;;;;5.00;4.00;;;;;-143.90;100.00;76890.59;4823708;28;103804;-70
2024/01/24 02:20:52;;;;;;;;;4.00;4.00;;;;;-143.90;100.00;76880.25;4816354;28;102364;-70
2024/01/24 02:23:22;;;;;;;;;2.50;2.50;;;;;-143.90;100.00;76871.97;4827146;28;104896;-69
2024/01/24 02:25:49;;;;;;;;;5.50;4.00;;;;;-143.90;100.00;76869.91;4824988;28;104048;-70
2024/01/24 02:28:16;;;;;;;;;7.00;5.00;;;;;-143.90;100.00;76863.72;4811351;28;102372;-70
2024/01/24 02:30:43;;;;;;;;;6.00;5.00;;;;;-143.90;100.00;76859.56;4818767;28;102091;-70
2024/01/24 02:33:10;;;;;;;;;3.50;3.50;;;;;-143.90;100.00;76859.56;4825482;28;102325;-69
2024/01/24 02:35:37;;;;;;;;;4.50;4.50;;;;;-143.90;100.00;76851.31;4825611;28;103933;-70
2024/01/24 02:38:03;;;;;;;;;7.25;5.00;;;;;-143.90;100.00;76838.88;4828750;28;102426;-69
2024/01/24 02:40:30;;;;;;;;;6.00;5.00;;;;;-143.90;100.00;76838.88;4826540;28;102566;-69
2024/01/24 02:42:57;;;;;;;;;5.50;4.25;;;;;-143.90;100.00;76828.53;4800312;28;102568;-71
2024/01/24 02:45:24;;;;;;;;;9.25;6.00;;;;;-143.90;100.00;76814.06;4830964;28;104037;-69
2024/01/24 02:47:50;;;;;;;;;8.00;6.00;;;;;-143.90;100.00;76809.94;4812358;28;102612;-70
2024/01/24 02:50:17;;;;;;;;;3.50;3.50;;;;;-143.90;100.00;76787.19;4829078;28;102988;-70
2024/01/24 02:52:44;;;;;;;;;7.50;5.00;;;;;-143.90;100.00;76768.56;4818310;28;102272;-68
2024/01/24 02:55:16;;;;;;;;;4.75;4.00;;;;;-143.90;100.00;76764.44;4828866;28;103475;-68
2024/01/24 02:57:44;;;;;;;;;4.75;4.75;;;;;-143.90;100.00;76758.22;4829563;28;102665;-69
2024/01/24 03:00:12;;;;;;;;;4.25;4.00;;;;;-143.90;100.00;76752.03;4827009;28;103625;-71
2024/01/24 03:02:40;;;;;;;;;4.25;4.25;;;;;-143.90;100.00;76747.88;4822250;28;102232;-71
2024/01/24 03:05:08;;;;;;;;;3.00;2.00;;;;;-143.90;100.00;76745.81;4828512;28;104224;-70
2024/01/24 03:07:36;;;;;;;;;4.50;2.00;;;;;-143.90;100.00;76743.75;4828578;28;102196;-71
2024/01/24 03:10:04;;;;;;;;;1.50;0.50;;;;;-143.90;100.00;76741.69;4831543;28;102042;-71
2024/01/24 03:12:31;;;;;;;;;7.00;5.00;;;;;-143.90;100.00;76737.53;4830112;28;102192;-71
2024/01/24 03:14:57;;;;;;;;;4.00;2.50;;;;;-143.90;100.00;76725.13;4818275;28;104869;-69
2024/01/24 03:17:24;;;;;;;;;3.00;2.00;;;;;-143.90;100.00;76725.13;4831763;28;102859;-69
2024/01/24 03:19:51;;;;;;;;;4.75;2.00;;;;;-143.90;100.00;76723.06;4830929;28;103059;-69
2024/01/24 03:22:18;;;;;;;;;4.75;3.50;;;;;-143.90;100.00;76725.13;4833626;28;102433;-69
2024/01/24 03:24:45;;;;;;;;;4.00;2.00;;;;;-143.90;100.00;76725.13;4815343;28;105074;-70
2024/01/24 03:27:11;;;;;;;;;5.00;4.00;;;;;-143.90;100.00;76727.22;4832323;28;102189;-70
2024/01/24 03:29:40;;;;;;;;;2.00;2.00;;;;;-143.90;100.00;76716.88;4828119;28;102317;-70
2024/01/24 03:32:07;;;;;;;;;2.00;2.00;;;;;-143.90;100.00;76710.66;4829814;28;102430;-68
2024/01/24 03:34:34;;;;;;;;;5.00;2.00;;;;;-143.90;100.00;76698.25;4822757;28;104286;-69
2024/01/24 03:37:01;;;;;;;;;2.50;2.00;;;;;-143.90;100.00;76689.97;4821346;28;102123;-70
2024/01/24 03:39:28;;;;;;;;;5.50;4.00;;;;;-143.90;100.00;76671.38;4828382;28;102755;-70
2024/01/24 03:41:54;;;;;;;;;4.25;2.00;;;;;-143.90;100.00;76658.97;4831168;28;102923;-69
2024/01/24 03:44:21;;;;;;;;;2.50;2.50;;;;;-143.90;100.00;76650.69;4826175;28;109893;-70
2024/01/24 03:46:48;;;;;;;;;1.50;1.25;;;;;-143.90;100.00;76636.22;4819119;28;102383;-69
2024/01/24 03:49:15;;;;;;;;;4.75;4.25;;;;;-143.90;100.00;76630.00;4831848;28;104506;-70
2024/01/24 03:51:42;;;;;;;;;5.00;4.50;;;;;-143.90;100.00;76621.72;4831250;28;102556;-69
2024/01/24 03:54:09;;;;;;;;;4.25;4.00;;;;;-143.90;100.00;76615.53;4827803;28;103939;-69
2024/01/24 03:56:36;;;;;;;;;6.50;5.00;;;;;-143.90;100.00;76611.38;4816516;28;103370;-70
2024/01/24 03:59:02;;;;;;;;;6.50;5.50;;;;;-143.90;100.00;76611.38;4824729;28;102557;-70
2024/01/24 04:01:29;;;;;;;;;6.00;4.50;;;;;-143.90;100.00;76625.88;4829317;28;102346;-70
2024/01/24 04:03:56;;;;;;;;;5.25;4.50;;;;;-143.90;100.00;76611.38;4827956;28;104205;-70
2024/01/24 04:06:22;;;;;;;;;5.00;4.00;;;;;-143.90;100.00;76598.97;4832083;28;102587;-69
2024/01/24 04:08:49;;;;;;;;;5.00;4.00;;;;;-143.90;100.00;76594.84;4813451;28;102469;-70
2024/01/24 04:11:16;;;;;;;;;5.00;2.00;;;;;-143.90;100.00;76578.31;4829979;28;102417;-70
2024/01/24 04:13:42;;;;;;;;;2.50;2.00;;;;;-143.90;100.00;76565.88;4830863;28;104874;-71
2024/01/24 04:16:09;;;;;;;;;4.25;2.50;;;;;-143.90;100.00;76559.69;4829291;28;104569;-69
2024/01/24 04:18:37;;;;;;;;;0.25;0.25;;;;;-143.90;100.00;76553.47;4821416;28;102401;-71
2024/01/24 04:21:04;;;;;;;;;7.00;2.50;;;;;-143.90;100.00;76545.22;4827060;28;102563;-70
2024/01/24 04:23:30;;;;;;;;;9.00;6.50;;;;;-143.90;100.00;76532.78;4829039;28;104239;-70
2024/01/24 04:25:57;;;;;;;;;6.00;4.75;;;;;-143.90;100.00;76514.19;4829256;28;102237;-69
2024/01/24 04:28:24;;;;;;;;;6.00;3.00;;;;;-143.90;100.00;76503.84;4823351;28;103723;-70
2024/01/24 04:30:51;;;;;;;;;5.00;4.75;;;;;-143.90;100.00;76497.63;4787389;28;102510;-69
2024/01/24 04:33:18;;;;;;;;;4.50;4.00;;;;;-143.90;100.00;76495.56;4822623;28;104130;-70
2024/01/24 04:35:45;;;;;;;;;7.00;4.00;;;;;-143.90;100.00;76487.31;4828688;28;102391;-70
2024/01/24 04:38:11;;;;;;;;;7.50;5.25;;;;;-143.90;100.00;76474.91;4827059;28;102188;-69
2024/01/24 04:40:38;;;;;;;;;4.75;4.00;;;;;-143.90;100.00;76458.34;4825114;28;105297;-70
2024/01/24 04:43:05;;;;;;;;;6.00;4.00;;;;;-143.90;100.00;76445.94;4823156;28;106023;-70
2024/01/24 04:45:31;;;;;;;;;5.00;4.75;;;;;-143.90;100.00;76433.53;4821931;28;102401;-70
2024/01/24 04:47:58;;;;;;;;;8.75;6.75;;;;;-143.90;100.00;76419.06;4828241;28;101963;-71
2024/01/24 04:50:25;;;;;;;;;8.50;6.00;;;;;-143.90;100.00;76410.78;4831854;28;102309;-70
2024/01/24 04:52:52;;;;;;;;;6.00;5.00;;;;;-143.90;100.00;76410.78;4813791;28;103963;-70
2024/01/24 04:55:18;;;;;;;;;9.00;7.75;;;;;-143.90;100.00;76396.31;4828799;28;102095;-70
2024/01/24 04:57:45;;;;;;;;;8.00;7.25;;;;;-143.90;100.00;76390.09;4828960;28;103357;-71
2024/01/24 05:00:12;;;;;;;;;3.00;2.50;;;;;-143.90;100.00;76379.75;4827124;28;102602;-70
2024/01/24 05:02:39;;;;;;;;;8.00;6.50;;;;;-143.90;100.00;76383.91;4818615;28;103956;-71
2024/01/24 05:05:07;;;;;;;;;9.50;7.25;;;;;-143.90;100.00;76379.75;4827513;28;102125;-70
2024/01/24 05:07:34;;;;;;;;;11.50;8.75;;;;;-143.90;100.00;76369.41;4825113;28;102364;-70
2024/01/24 05:10:03;;;;;;;;;8.25;7.00;;;;;-143.90;100.00;76367.34;4826724;28;102518;-70
2024/01/24 05:12:30;;;;;;;;;9.00;6.50;;;;;-143.90;100.00;76354.94;4827318;28;103975;-69
2024/01/24 05:14:57;;;;;;;;;13.75;11.25;;;;;-143.90;100.00;76348.75;4814781;28;101970;-71
2024/01/24 05:17:24;;;;;;;;;7.00;7.00;;;;;-143.90;100.00;76342.53;4827279;28;102252;-69
2024/01/24 05:19:50;;;;;;;;;7.50;7.50;;;;;-143.90;100.00;76334.25;4832081;28;102418;-69
2024/01/24 05:22:17;;;;;;;;;7.75;6.75;;;;;-143.90;100.00;76336.34;4822895;28;104227;-70
2024/01/24 05:24:45;;;;;;;;;6.00;5.00;;;;;-143.90;100.00;76321.84;4814698;28;102646;-70
2024/01/24 05:27:12;;;;;;;;;9.50;6.75;;;;;-143.90;100.00;76326.00;4830419;28;104524;-69
2024/01/24 05:29:39;;;;;;;;;7.00;5.75;;;;;-143.90;100.00;76313.59;4827379;28;102007;-70
2024/01/24 05:32:06;;;;;;;;;7.00;6.00;;;;;-143.90;100.00;76319.78;4830007;28;104251;-69
2024/01/24 05:34:33;;;;;;;;;11.00;6.00;;;;;-143.90;100.00;76323.94;4825178;28;102568;-71
2024/01/24 05:37:00;;;;;;;;;9.75;7.50;;;;;-143.90;100.00;76326.00;4820294;28;101990;-70
2024/01/24 05:39:27;;;;;;;;;6.00;6.00;;;;;-143.90;100.00;76315.66;4827854;28;102427;-70
2024/01/24 05:41:53;;;;;;;;;6.75;6.00;;;;;-143.90;100.00;76313.59;4827809;28;104222;-70
2024/01/24 05:44:20;;;;;;;;;8.00;7.00;;;;;-143.90;100.00;76315.66;4827622;28;101979;-70
2024/01/24 05:46:47;;;;;;;;;9.50;6.00;;;;;-143.90;100.00;76319.78;4794706;28;102111;-70
2024/01/24 05:49:14;;;;;;;;;5.50;5.25;;;;;-143.90;100.00;76299.09;4822222;28;102498;-70
2024/01/24 05:51:42;;;;;;;;;9.75;6.00;;;;;-143.90;100.00;76297.03;4824829;28;104089;-70
2024/01/24 05:54:09;;;;;;;;;9.00;6.00;;;;;-143.90;100.00;76290.84;4827568;28;102629;-70
2024/01/24 05:56:36;;;;;;;;;7.00;6.00;;;;;-143.90;100.00;76290.84;4819607;28;102566;-72
2024/01/24 05:59:03;;;;;;;;;9.00;9.00;;;;;-143.90;100.00;76276.38;4822248;28;102490;-70
2024/01/24 06:01:29;;;;;;;;;11.25;7.25;;;;;-143.90;100.00;76268.09;4826361;28;104015;-70
2024/01/24 06:03:56;;;;;;;;;9.25;6.25;;;;;-143.90;100.00;76272.22;4833237;28;102694;-71
2024/01/24 06:06:23;;;;;;;;;7.00;6.00;;;;;-143.90;100.00;76263.97;4830940;28;101907;-71
2024/01/24 06:08:50;;;;;;;;;4.00;3.00;;;;;-143.90;100.00;76251.53;4822278;28;102148;-71
2024/01/24 06:11:17;;;;;;;;;6.00;5.00;;;;;-143.90;100.00;76247.41;4829868;28;104234;-71
2024/01/24 06:13:44;;;;;;;;;6.00;3.00;;;;;-143.90;100.00;76251.53;4832177;28;102510;-70
2024/01/24 06:16:11;;;;;;;;;3.00;3.00;;;;;-143.90;100.00;76239.13;4829465;28;103015;-71
2024/01/24 06:18:37;;;;;;;;;3.00;3.00;;;;;-143.90;100.00;76241.22;4825788;28;102255;-70
2024/01/24 06:21:04;;;;;;;;;2.00;2.00;;;;;-143.90;100.00;76232.94;4832247;28;104036;-71
2024/01/24 06:23:31;;;;;;;;;4.00;2.75;;;;;-143.90;100.00;76226.72;4797929;28;102472;-70
2024/01/24 06:25:57;;;;;;;;;6.75;4.00;;;;;-143.90;100.00;76222.59;4834454;28;102065;-70
2024/01/24 06:28:24;;;;;;;;;4.50;3.00;;;;;-143.90;100.00;76226.72;4832234;28;102904;-70
2024/01/24 06:30:51;;;;;;;;;5.00;4.00;;;;;-143.90;100.00;76235.00;4818237;28;104094;-70
2024/01/24 06:33:21;;;;;;;;;2.00;1.00;;;;;-143.90;100.00;76239.13;4831498;28;101983;-71
2024/01/24 06:35:48;;;;;;;;;7.00;5.00;;;;;-143.90;100.00;76235.00;4830493;28;102683;-71
2024/01/24 06:38:14;;;;;;;;;10.25;9.75;;;;;-143.90;100.00;76241.22;4829061;28;102017;-71
2024/01/24 06:40:41;;;;;;;;;10.50;8.50;;;;;-143.90;100.00;76226.72;4821508;28;104147;-70
2024/01/24 06:43:09;;;;;;;;;9.75;7.00;;;;;-143.90;100.00;76220.53;4829911;28;104817;-70
2024/01/24 06:45:36;;;;;;;;;10.25;7.00;;;;;-143.90;100.00;76195.72;4829985;28;102559;-69
2024/01/24 06:48:03;;;;;;;;;8.50;6.50;;;;;-143.90;100.00;76206.06;4833759;28;102096;-70
2024/01/24 06:50:31;;;;;;;;;12.50;12.25;;;;;-143.90;100.00;76214.31;4834182;28;104678;-70
2024/01/24 06:52:57;;;;;;;;;17.50;15.75;;;;;-143.90;100.00;76203.97;4821469;28;101934;-70
2024/01/24 06:55:25;;;;;;;;;20.75;15.00;;;;;-143.90;100.00;76181.25;4818888;28;102126;-70
2024/01/24 06:57:51;;;;;;;;;22.00;17.75;;;;;-143.90;100.00;76179.16;4831230;28;101953;-71
2024/01/24 07:00:18;;;;;;;;;23.50;18.75;;;;;-143.90;100.00;76187.44;4813516;29;104017;-71
2024/01/24 07:02:45;;;;;;;;;38.00;30.00;;;;;-143.90;100.00;76177.09;4821234;28;103154;-71
2024/01/24 07:05:12;;;;;;;;;27.25;23.50;;;;;-143.90;100.00;76183.31;4830702;28;101956;-70
2024/01/24 07:07:39;;;;;;;;;29.50;20.50;;;;;-143.90;100.00;76164.69;4832335;28;105318;-71
2024/01/24 07:10:10;;;;;;;;;37.00;26.25;;;;;-143.90;100.00;76152.28;4828845;28;104104;-71
2024/01/24 07:12:44;;;;;;;;;34.50;26.75;;;;;-143.90;100.00;76154.34;4826099;28;102676;-70
2024/01/24 07:15:12;;;;;;;;;47.00;33.00;;;;;-143.90;100.00;76137.81;4833525;28;102709;-70
2024/01/24 07:17:39;;;;;;;;;42.50;30.25;;;;;-143.90;100.00;76135.75;4831395;28;102467;-70
2024/01/24 07:20:07;;;;;;;;;35.25;27.00;;;;;-143.90;100.00;76135.75;4831337;28;104102;-71
2024/01/24 07:22:34;;;;;;;;;44.75;36.75;;;;;-143.90;100.00;76137.81;4829389;28;102038;-72
2024/01/24 07:25:01;;;;;;;;;25.50;21.25;;;;;-143.90;100.00;76119.19;4825818;28;102610;-69
2024/01/24 07:27:29;;;;;;;;;18.75;13.00;;;;;-143.90;100.00;76110.94;4832708;28;105568;-70
2024/01/24 07:29:57;;;;;;;;;8.25;7.25;;;;;-143.90;100.00;76115.06;4825894;28;109518;-70
2024/01/24 07:32:24;;;;;;;;;10.25;8.00;;;;;-143.90;100.00;76106.78;4830193;28;102521;-70
2024/01/24 07:34:51;;;;;;;;;6.75;6.50;;;;;-143.90;100.00;76113.00;4814343;28;102137;-70
2024/01/24 07:37:17;;;;;;;;;7.00;6.25;;;;;-143.90;100.00;76110.94;4833961;28;101941;-70
2024/01/24 07:39:44;;;;;;;;;6.00;6.00;;;;;-143.90;100.00;76127.47;4831920;28;104455;-71
2024/01/24 07:42:10;;;;;;;;;6.00;5.00;;;;;-143.90;100.00;76119.19;4828264;28;104786;-72
2024/01/24 07:44:37;;;;;;;;;6.25;6.25;;;;;-143.90;100.00;76133.69;4806945;28;102122;-71
2024/01/24 07:47:04;;;;;;;;;7.00;6.75;;;;;-143.90;100.00;76102.66;4829774;28;102365;-70
2024/01/24 07:49:33;;;;;;;;;7.00;6.00;;;;;-143.90;100.00;76113.00;4828134;28;103984;-71
2024/01/24 07:52:04;;;;;;;;;7.00;6.00;;;;;-143.90;100.00;76102.66;4830749;28;102585;-71
2024/01/24 07:54:31;;;;;;;;;6.75;5.75;;;;;-143.90;100.00;76086.13;4829113;28;102485;-71
2024/01/24 07:56:58;;;;;;;;;11.50;9.50;;;;;-143.90;100.00;76081.97;4820231;28;102135;-73
2024/01/24 07:59:24;;;;;;;;;6.25;5.75;;;;;-143.90;100.00;76069.56;4827632;28;104012;-72
2024/01/24 08:01:51;;;;;;;;;5.00;5.00;;;;;-143.90;100.00;76057.16;4829755;28;102393;-70
2024/01/24 08:04:18;;;;;;;;;5.00;3.00;;;;;-143.90;100.00;76050.97;4830439;28;102407;-72
2024/01/24 08:06:47;;;;;;;;;6.50;4.75;;;;;-143.90;100.00;76048.88;4818982;28;102306;-71
2024/01/24 08:09:17;;;;;;;;;5.25;5.00;;;;;-143.90;100.00;76044.75;4826968;28;104193;-72
2024/01/24 08:11:44;;;;;;;;;6.75;6.75;;;;;-143.90;100.00;76034.41;4828593;28;102320;-69
2024/01/24 08:14:12;;;;;;;;;10.75;7.00;;;;;-143.90;100.00;76038.56;4828996;28;102549;-71
2024/01/24 08:16:39;;;;;;;;;7.75;6.00;;;;;-143.90;100.00;76046.81;4823712;28;102003;-71
2024/01/24 08:19:05;;;;;;;;;7.75;5.75;;;;;-143.90;100.00;76036.47;4828067;28;105524;-70
2024/01/24 08:21:32;;;;;;;;;5.00;5.00;;;;;-143.90;100.00;76036.47;4829922;28;102362;-71
2024/01/24 08:23:59;;;;;;;;;7.00;6.00;;;;;-143.90;100.00;76040.63;4827278;28;102347;-71
2024/01/24 08:26:25;;;;;;;;;9.00;9.00;;;;;-143.90;100.00;76044.75;4816927;28;102138;-70
2024/01/24 08:28:52;;;;;;;;;10.25;7.25;;;;;-143.90;100.00;76044.75;4816943;28;103857;-70
2024/01/24 08:31:19;;;;;;;;;10.25;7.00;;;;;-143.90;100.00;76030.28;4812400;29;102460;-70
2024/01/24 08:33:46;;;;;;;;;7.00;6.25;;;;;-143.90;100.00;76030.28;4829062;28;102544;-70
2024/01/24 08:36:17;;;;;;;;;7.00;6.75;;;;;-143.90;100.00;76028.22;4828234;28;101953;-71
2024/01/24 08:38:44;;;;;;;;;9.25;7.00;;;;;-143.90;100.00;76024.06;4814651;28;104910;-70
2024/01/24 08:41:11;;;;;;;;;17.25;14.50;;;;;-143.90;100.00;76005.47;4828509;28;102577;-71
2024/01/24 08:43:37;;;;;;;;;21.50;21.50;;;;;-143.90;100.00;76003.41;4828291;28;102254;-71
2024/01/24 08:46:04;;;;;;;;;19.00;17.75;;;;;-143.90;100.00;75991.00;4826480;28;102471;-71
2024/01/24 08:48:31;;;;;;;;;19.00;15.25;;;;;-143.90;100.00;75980.66;4830611;28;104211;-72
2024/01/24 08:50:57;;;;;;;;;13.75;12.50;;;;;-143.90;100.00;75997.19;4819650;28;101928;-70
2024/01/24 08:53:24;;;;;;;;;19.00;18.00;;;;;-143.90;100.00;75984.78;4819668;28;102083;-71
2024/01/24 08:55:51;;;;;;;;;21.00;19.00;;;;;-143.90;100.00;75968.25;4829733;28;102628;-71
2024/01/24 08:58:17;;;;;;;;;19.50;16.75;;;;;-143.90;100.00;75953.78;4830585;28;104201;-71
2024/01/24 09:00:45;;;;;;;;;8.50;6.25;;;;;-143.90;100.00;75949.63;4818434;28;102474;-71
2024/01/24 09:03:12;;;;;;;;;11.75;10.00;;;;;-143.90;100.00;75945.50;4828608;28;102226;-71
2024/01/24 09:05:39;;;;;;;;;17.50;15.00;;;;;-143.90;100.00;75933.09;4829438;28;104146;-70
2024/01/24 09:08:05;;;;;;;;;11.75;10.75;;;;;-143.90;100.00;75933.09;4825195;28;104017;-71
2024/01/24 09:10:33;;;;;;;;;14.00;12.25;;;;;-143.90;100.00;75928.97;4828910;28;102415;-71
2024/01/24 09:13:00;;;;;;;;;11.00;11.00;;;;;-143.90;100.00;75910.34;4823000;28;102517;-70
2024/01/24 09:15:27;;;;;;;;;13.00;12.00;;;;;-143.90;100.00;75908.28;4830189;28;102076;-70
2024/01/24 09:17:53;;;;;;;;;12.00;11.00;;;;;-143.90;100.00;75916.56;4827665;28;104060;-70
2024/01/24 09:20:20;;;;;;;;;11.00;9.50;;;;;-143.90;100.00;75912.41;4828286;28;102980;-70
2024/01/24 09:22:49;;;;;;;;;12.00;9.75;;;;;-143.90;100.00;75887.59;4818581;28;102723;-69
2024/01/24 09:25:16;;;;;;;;;12.00;9.75;;;;;-143.90;100.00;75875.19;4829747;28;102133;-69
2024/01/24 09:27:43;;;;;;;;;12.00;10.75;;;;;-143.90;100.00;75862.78;4826293;28;103707;-70
2024/01/24 09:30:10;;;;;;;;;12.00;9.75;;;;;-143.90;100.00;75833.84;4827916;28;104920;-70
2024/01/24 09:32:37;;;;;;;;;9.25;7.00;;;;;-143.90;100.00;75806.97;4821800;28;101970;-71
2024/01/24 09:35:04;;;;;;;;;6.00;6.00;;;;;-143.90;100.00;75796.63;4824547;28;102085;-71
2024/01/24 09:37:31;;;;;;;;;9.25;7.75;;;;;-143.90;100.00;75778.00;4827714;28;104117;-70
2024/01/24 09:39:58;;;;;;;;;10.25;8.00;;;;;-143.90;100.00;75773.88;4833693;28;102176;-71
2024/01/24 09:42:26;;;;;;;;;6.00;6.00;;;;;-143.90;100.00;75759.41;4833633;28;102228;-70
2024/01/24 09:44:57;;;;;;;;;10.25;7.00;;;;;-143.90;100.00;75751.13;4825194;28;102838;-70
2024/01/24 09:47:25;;;;;;;;;10.75;7.00;;;;;-143.90;100.00;75753.19;4821770;28;104345;-70
2024/01/24 09:49:53;;;;;;;;;11.00;10.00;;;;;-143.90;100.00;75757.34;4827217;28;103252;-70
2024/01/24 09:52:23;;;;;;;;;7.25;6.25;;;;;-143.90;100.00;75734.59;4830202;28;102926;-69
2024/01/24 09:54:57;;;;;;;;;10.00;8.00;;;;;-143.90;100.00;75726.31;4821908;28;105376;-70
2024/01/24 09:57:26;;;;;;;;;6.75;6.50;;;;;-143.90;100.00;75713.91;4830735;28;105463;-70
2024/01/24 09:59:54;;;;;;;;;7.00;6.75;;;;;-143.90;100.00;75699.44;4817969;28;102078;-70
2024/01/24 10:02:21;;;;;;;;;6.25;6.00;;;;;-143.90;100.00;75689.09;4830478;28;102278;-70
2024/01/24 10:04:51;;;;;;;;;7.00;7.00;;;;;-143.90;100.00;75697.38;4820757;28;102119;-70
2024/01/24 10:07:19;;;;;;;;;7.50;6.00;;;;;-143.90;100.00;75676.69;4826477;28;104217;-69
2024/01/24 10:10:06;;;;;;;;;9.50;8.25;;;;;-143.90;100.00;75680.84;4830900;28;102140;-70
2024/01/24 10:12:34;;;;;;;;;6.00;6.00;;;;;-143.90;100.00;75660.16;4812514;28;102447;-70
2024/01/24 10:15:02;;;;;;;;;7.75;6.00;;;;;-143.90;100.00;75658.09;4829442;28;102477;-70
2024/01/24 10:17:30;;;;;;;;;6.75;6.00;;;;;-143.90;100.00;75674.63;4829195;28;108259;-70
2024/01/24 10:19:58;;;;;;;;;7.00;6.25;;;;;-143.90;100.00;75656.03;4829599;28;102157;-69
2024/01/24 10:22:25;;;;;;;;;10.50;10.00;;;;;-143.90;100.00;75643.63;4830374;28;103327;-71
2024/01/24 10:24:55;;;;;;;;;10.75;10.75;;;;;-143.90;100.00;75631.22;4820172;28;101995;-71
2024/01/24 10:27:22;;;;;;;;;9.50;7.75;;;;;-143.90;100.00;75614.66;4831068;28;103967;-72
2024/01/24 10:29:52;;;;;;;;;7.00;7.00;;;;;-143.90;100.00;75614.66;4834537;28;102166;-71
2024/01/24 10:32:20;;;;;;;;;7.50;6.75;;;;;-143.90;100.00;75608.47;4820355;28;102327;-70
2024/01/24 10:34:49;;;;;;;;;8.00;7.25;;;;;-143.90;100.00;75598.13;4819531;28;102086;-71
2024/01/24 10:37:18;;;;;;;;;11.00;7.75;;;;;-143.90;100.00;75589.84;4812749;29;104223;-69
2024/01/24 10:39:47;;;;;;;;;7.00;7.00;;;;;-143.90;100.00;75579.53;4817292;29;102643;-70
2024/01/24 10:42:18;;;;;;;;;6.25;6.25;;;;;-143.90;100.00;75565.03;4830567;28;104635;-71
2024/01/24 10:44:46;;;;;;;;;4.00;2.75;;;;;-143.90;100.00;75546.44;4817196;28;102363;-72
2024/01/24 10:47:12;;;;;;;;;7.25;6.75;;;;;-143.90;100.00;75523.69;4832835;28;104430;-70
2024/01/24 10:49:39;;;;;;;;;6.75;5.00;;;;;-143.90;100.00;75517.50;4831318;28;102098;-70
2024/01/24 10:52:07;;;;;;;;;5.25;5.25;;;;;-143.90;100.00;75519.56;4832722;28;101993;-70
2024/01/24 10:54:37;;;;;;;;;6.50;6.00;;;;;-143.90;100.00;75517.50;4824396;28;102912;-71
2024/01/24 10:57:06;;;;;;;;;5.75;5.75;;;;;-143.90;100.00;75517.50;4828453;28;106474;-71